sensor_id;sensor_type;location;lat;lon;timestamp;pressure;altitude;pressure_sealevel;temperature;humidity
55014;BME280;40916;51.632;5.552;2022-08-25T00:00:30;1012.8405995065568;;;20.376737300578892;0
55014;BME280;40916;51.632;5.552;2022-08-25T00:01:31;1012.740396996357;;;20.338980854704683;0
55014;BME280;40916;51.632;5.552;2022-08-25T00:02:30;1012.7992803226924;;;20.3200988736507;0
55014;BME280;40916;51.632;5.552;2022-08-25T00:03:30;1012.7925958246436;;;20.31380432270241;0
55014;BME280;40916;51.632;5.552;2022-08-25T00:04:30;1012.854824271067;;;20.32639314591658;0
55014;BME280;40916;51.632;5.552;2022-08-25T00:05:30;1012.7662870528796;;;20.31380432270241;0
55014;BME280;40916;51.632;5.552;2022-08-25T00:06:30;1012.7199206947759;;;20.294918997003695;0
55014;BME280;40916;51.632;5.552;2022-08-25T00:07:30;1012.6885794713448;;;20.276031160428328;0
55014;BME280;40916;51.632;5.552;2022-08-25T00:08:30;1012.7299184483647;;;20.276031160428328;0
55014;BME280;40916;51.632;5.552;2022-08-25T00:09:31;1012.7060829569564;;;20.257140810922596;0
55014;BME280;40916;51.632;5.552;2022-08-25T00:10:31;1012.7753651952743;;;20.244545847497825;0
55014;BME280;40916;51.632;5.552;2022-08-25T00:11:32;1012.7109915833707;;;20.219352564893974;0
55014;BME280;40916;51.632;5.552;2022-08-25T00:12:30;1012.7013452296769;;;20.206754244494118;0
55014;BME280;40916;51.632;5.552;2022-08-25T00:13:31;1012.719612645485;;;20.181554242443244;0
55014;BME280;40916;51.632;5.552;2022-08-25T00:14:31;1012.6710321717634;;;20.150047931223593;0
55014;BME280;40916;51.632;5.552;2022-08-25T00:15:30;1012.7829439608877;;;20.15634975464525;0
55014;BME280;40916;51.632;5.552;2022-08-25T00:16:30;1012.7649589841996;;;20.150047931223593;0
55014;BME280;40916;51.632;5.552;2022-08-25T00:17:30;1012.77782745173;;;20.137443442077263;0
55014;BME280;40916;51.632;5.552;2022-08-25T00:18:30;1012.7560826699158;;;20.13114077619921;0
55014;BME280;40916;51.632;5.552;2022-08-25T00:19:31;1012.7448119068914;;;20.13114077619921;0
55014;BME280;40916;51.632;5.552;2022-08-25T00:20:31;1012.7606353427428;;;20.124837829348937;0
55014;BME280;40916;51.632;5.552;2022-08-25T00:21:31;1012.7471960201914;;;20.112231092424658;0
55014;BME280;40916;51.632;5.552;2022-08-25T00:22:31;1012.7608387238306;;;20.0933188778267;0
55014;BME280;40916;51.632;5.552;2022-08-25T00:23:31;1012.7645953400624;;;20.0933188778267;0
55014;BME280;40916;51.632;5.552;2022-08-25T00:24:31;1012.7023098495465;;;20.080709327723547;0
55014;BME280;40916;51.632;5.552;2022-08-25T00:25:31;1012.7264202772051;;;20.068098651272074;0
55014;BME280;40916;51.632;5.552;2022-08-25T00:26:31;1012.7542807898074;;;20.0554868478563;0
55014;BME280;40916;51.632;5.552;2022-08-25T00:27:31;1012.770086765327;;;20.04918052334419;0
55014;BME280;40916;51.632;5.552;2022-08-25T00:28:31;1012.7536409036287;;;20.03025985766574;0
55014;BME280;40916;51.632;5.552;2022-08-25T00:29:31;1012.7477791133402;;;19.986101757013834;0
55014;BME280;40916;51.632;5.552;2022-08-25T00:30:31;1012.7335236569647;;;19.97979232656038;0
55014;BME280;40916;51.632;5.552;2022-08-25T00:31:31;1012.7312993828507;;;19.967172617109533;0
55014;BME280;40916;51.632;5.552;2022-08-25T00:32:31;1012.7440922709543;;;19.954551775750403;0
55014;BME280;40916;51.632;5.552;2022-08-25T00:33:31;1012.7013078787704;;;19.935618390027248;0
55014;BME280;40916;51.632;5.552;2022-08-25T00:34:32;1012.7749267297129;;;19.916682454020776;0
55014;BME280;40916;51.632;5.552;2022-08-25T00:35:31;1012.7651667281406;;;19.904057078823694;0
55014;BME280;40916;51.632;5.552;2022-08-25T00:36:31;1012.7614116389245;;;19.904057078823694;0
55014;BME280;40916;51.632;5.552;2022-08-25T00:37:31;1012.7606594309782;;;19.91036990825998;0
55014;BME280;40916;51.632;5.552;2022-08-25T00:38:31;1012.7426361947071;;;19.904057078823694;0
55014;BME280;40916;51.632;5.552;2022-08-25T00:39:31;1012.7463912833022;;;19.904057078823694;0
55014;BME280;40916;51.632;5.552;2022-08-25T00:40:31;1012.7779322297096;;;19.89143056861365;0
55014;BME280;40916;51.632;5.552;2022-08-25T00:41:31;1012.7876828077713;;;19.872488673787874;0
55014;BME280;40916;51.632;5.552;2022-08-25T00:42:31;1012.7869371996494;;;19.878802922768344;0
55014;BME280;40916;51.632;5.552;2022-08-25T00:43:33;1012.8222202210875;;;19.86617414066502;0
55014;BME280;40916;51.632;5.552;2022-08-25T00:44:31;1012.7523652543043;;;19.85354422168047;0
55014;BME280;40916;51.632;5.552;2022-08-25T00:45:31;1012.8124401714489;;;19.85354422168047;0
55014;BME280;40916;51.632;5.552;2022-08-25T00:46:33;1012.7951465309915;;;19.840913165191026;0
55014;BME280;40916;51.632;5.552;2022-08-25T00:47:31;1012.7973567367989;;;19.821964446269803;0
55014;BME280;40916;51.632;5.552;2022-08-25T00:48:31;1012.8085235285221;;;19.790377551695066;0
55014;BME280;40916;51.632;5.552;2022-08-25T00:49:32;1012.7731629393717;;;19.771421993685767;0
55014;BME280;40916;51.632;5.552;2022-08-25T00:50:32;1012.7865943109881;;;19.752463867144186;0
55014;BME280;40916;51.632;5.552;2022-08-25T00:51:33;1012.7294104365906;;;19.72718236593501;0
55014;BME280;40916;51.632;5.552;2022-08-25T00:52:33;1012.7819617050657;;;19.72718236593501;0
55014;BME280;40916;51.632;5.552;2022-08-25T00:53:31;1012.7810631356502;;;19.701896289658556;0
55014;BME280;40916;51.632;5.552;2022-08-25T00:54:32;1012.7569180267511;;;19.682928727036824;0
55014;BME280;40916;51.632;5.552;2022-08-25T00:55:33;1012.7125861538682;;;19.676605633283312;0
55014;BME280;40916;51.632;5.552;2022-08-25T00:56:32;1012.7501186861891;;;19.676605633283312;0
55014;BME280;40916;51.632;5.552;2022-08-25T00:57:32;1012.7487028809666;;;19.68925153429804;0
55014;BME280;40916;51.632;5.552;2022-08-25T00:58:32;1012.7756845537232;;;19.682928727036824;0
55014;BME280;40916;51.632;5.552;2022-08-25T00:59:32;1012.8146291554688;;;19.670282252958735;0
55014;BME280;40916;51.632;5.552;2022-08-25T01:00:34;1012.7702951853995;;;19.663958585984286;0
55014;BME280;40916;51.632;5.552;2022-08-25T01:01:32;1012.8378519504787;;;19.663958585984286;0
55014;BME280;40916;51.632;5.552;2022-08-25T01:02:32;1012.7815546434545;;;19.663958585984286;0
55014;BME280;40916;51.632;5.552;2022-08-25T01:03:32;1012.783897975886;;;19.676605633283312;0
55014;BME280;40916;51.632;5.552;2022-08-25T01:04:32;1012.7822577039732;;;19.65763463228113;0
55014;BME280;40916;51.632;5.552;2022-08-25T01:05:32;1012.8040735629145;;;19.663958585984286;0
55014;BME280;40916;51.632;5.552;2022-08-25T01:06:33;1012.7468297970738;;;19.638661050010658;0
55014;BME280;40916;51.632;5.552;2022-08-25T01:07:32;1012.7648950244832;;;19.644985864373222;0
55014;BME280;40916;51.632;5.552;2022-08-25T01:08:32;1012.719859042129;;;19.644985864373222;0
55014;BME280;40916;51.632;5.552;2022-08-25T01:09:32;1012.7369669908288;;;19.62601056007356;0
55014;BME280;40916;51.632;5.552;2022-08-25T01:10:32;1012.7168062197878;;;19.638661050010658;0
55014;BME280;40916;51.632;5.552;2022-08-25T01:11:32;1012.7604411939355;;;19.651310391770405;0
55014;BME280;40916;51.632;5.552;2022-08-25T01:12:32;1012.7400225032764;;;19.632335948603764;0
55014;BME280;40916;51.632;5.552;2022-08-25T01:13:34;1012.7130532731853;;;19.638661050010658;0
55014;BME280;40916;51.632;5.552;2022-08-25T01:14:32;1012.6933250422021;;;19.613358921327173;0
55014;BME280;40916;51.632;5.552;2022-08-25T01:15:32;1012.7526742842491;;;19.61968488434104;0
55014;BME280;40916;51.632;5.552;2022-08-25T01:16:32;1012.6708085937048;;;19.613358921327173;0
55014;BME280;40916;51.632;5.552;2022-08-25T01:17:33;1012.6506515820806;;;19.62601056007356;0
55014;BME280;40916;51.632;5.552;2022-08-25T01:18:48;1012.6642649786411;;;19.638661050010658;0
55014;BME280;40916;51.632;5.552;2022-08-25T01:19:32;1012.6485521066019;;;19.644985864373222;0
55014;BME280;40916;51.632;5.552;2022-08-25T01:20:32;1012.6741210734305;;;19.651310391770405;0
55014;BME280;40916;51.632;5.552;2022-08-25T01:21:36;1012.7245522717822;;;19.670282252958735;0
55014;BME280;40916;51.632;5.552;2022-08-25T01:22:32;1012.7102447612967;;;19.663958585984286;0
55014;BME280;40916;51.632;5.552;2022-08-25T01:23:32;1012.6741210734305;;;19.651310391770405;0
55014;BME280;40916;51.632;5.552;2022-08-25T01:24:34;1012.783897975886;;;19.676605633283312;0
55014;BME280;40916;51.632;5.552;2022-08-25T01:25:35;1012.7402699693781;;;19.663958585984286;0
55014;BME280;40916;51.632;5.552;2022-08-25T01:26:33;1012.7644246371676;;;19.682928727036824;0
55014;BME280;40916;51.632;5.552;2022-08-25T01:27:32;1012.7562095928499;;;19.68925153429804;0
55014;BME280;40916;51.632;5.552;2022-08-25T01:28:33;1012.7151123306652;;;19.720861275974872;0
55014;BME280;40916;51.632;5.552;2022-08-25T01:29:33;1012.7565633789281;;;19.752463867144186;0
55014;BME280;40916;51.632;5.552;2022-08-25T01:30:33;1012.7325938135095;;;19.76510290366887;0
55014;BME280;40916;51.632;5.552;2022-08-25T01:31:33;1012.7447025954604;;;19.790377551695066;0
55014;BME280;40916;51.632;5.552;2022-08-25T01:32:33;1012.7244701100698;;;19.803013164449855;0
55014;BME280;40916;51.632;5.552;2022-08-25T01:33:33;1012.7703399128391;;;19.828280970572575;0
55014;BME280;40916;51.632;5.552;2022-08-25T01:34:33;1012.7590764790706;;;19.828280970572575;0
55014;BME280;40916;51.632;5.552;2022-08-25T01:35:33;1012.7658482919884;;;19.834597210186953;0
55014;BME280;40916;51.632;5.552;2022-08-25T01:36:33;1012.7605471846659;;;19.815647637200527;0
55014;BME280;40916;51.632;5.552;2022-08-25T01:37:33;1012.7973567367989;;;19.821964446269803;0
55014;BME280;40916;51.632;5.552;2022-08-25T01:38:33;1012.7882927646745;;;19.803013164449855;0
55014;BME280;40916;51.632;5.552;2022-08-25T01:39:34;1012.7799452966316;;;19.777740798310205;0
55014;BME280;40916;51.632;5.552;2022-08-25T01:40:33;1012.7926573042764;;;19.76510290366887;0
55014;BME280;40916;51.632;5.552;2022-08-25T01:41:34;1012.8151811215057;;;19.76510290366887;0
55014;BME280;40916;51.632;5.552;2022-08-25T01:42:36;1012.8443406901047;;;19.739823688108828;0
55014;BME280;40916;51.632;5.552;2022-08-25T01:43:34;1012.7826773253734;;;19.720861275974872;0
55014;BME280;40916;51.632;5.552;2022-08-25T01:44:34;1012.6766783720835;;;19.695574055145713;0
55014;BME280;40916;51.632;5.552;2022-08-25T01:45:33;1012.7158276033199;;;19.71453989999449;0
55014;BME280;40916;51.632;5.552;2022-08-25T01:46:33;1012.7504965553061;;;19.739823688108828;0
55014;BME280;40916;51.632;5.552;2022-08-25T01:47:33;1012.7468848059204;;;19.771421993685767;0
55014;BME280;40916;51.632;5.552;2022-08-25T01:48:33;1012.8010151815942;;;19.790377551695066;0
55014;BME280;40916;51.632;5.552;2022-08-25T01:49:33;1012.7657671177761;;;19.803013164449855;0
55014;BME280;40916;51.632;5.552;2022-08-25T01:50:33;1012.7582585698034;;;19.803013164449855;0
55014;BME280;40916;51.632;5.552;2022-08-25T01:51:37;1012.7920470395919;;;19.803013164449855;0
55014;BME280;40916;51.632;5.552;2022-08-25T01:52:36;1012.6846358677026;;;19.790377551695066;0
55014;BME280;40916;51.632;5.552;2022-08-25T01:53:33;1012.6883900372565;;;19.790377551695066;0
55014;BME280;40916;51.632;5.552;2022-08-25T01:54:33;1012.6823395004221;;;19.777740798310205;0
55014;BME280;40916;51.632;5.552;2022-08-25T01:55:33;1012.7799452966316;;;19.777740798310205;0
55014;BME280;40916;51.632;5.552;2022-08-25T01:56:33;1012.7318687323933;;;19.771421993685767;0
55014;BME280;40916;51.632;5.552;2022-08-25T01:57:33;1012.6739783567197;;;19.752463867144186;0
55014;BME280;40916;51.632;5.552;2022-08-25T01:58:34;1012.7715788439654;;;19.752463867144186;0
55014;BME280;40916;51.632;5.552;2022-08-25T01:59:33;1012.6949094336992;;;19.733503169953483;0
55014;BME280;40916;51.632;5.552;2022-08-25T02:00:33;1012.7015275806199;;;19.70821823791526;0
55014;BME280;40916;51.632;5.552;2022-08-25T02:01:33;1012.7698027595355;;;19.701896289658556;0
55014;BME280;40916;51.632;5.552;2022-08-25T02:02:33;1012.7613784483048;;;19.676605633283312;0
55014;BME280;40916;51.632;5.552;2022-08-25T02:03:35;1012.6928863114359;;;19.651310391770405;0
55014;BME280;40916;51.632;5.552;2022-08-25T02:04:33;1012.7604411939355;;;19.651310391770405;0
55014;BME280;40916;51.632;5.552;2022-08-25T02:05:33;1012.7407198361758;;;19.62601056007356;0
55014;BME280;40916;51.632;5.552;2022-08-25T02:06:33;1012.6776184134933;;;19.61968488434104;0
55014;BME280;40916;51.632;5.552;2022-08-25T02:07:33;1012.7533689266926;;;19.613358921327173;0
55014;BME280;40916;51.632;5.552;2022-08-25T02:08:33;1012.7683799027766;;;19.613358921327173;0
55014;BME280;40916;51.632;5.552;2022-08-25T02:09:33;1012.7172279927515;;;19.600706133139088;0
55014;BME280;40916;51.632;5.552;2022-08-25T02:10:33;1012.7789438507356;;;19.61968488434104;0
55014;BME280;40916;51.632;5.552;2022-08-25T02:11:34;1012.815776769168;;;19.62601056007356;0
55014;BME280;40916;51.632;5.552;2022-08-25T02:12:33;1012.7362696069283;;;19.632335948603764;0
55014;BME280;40916;51.632;5.552;2022-08-25T02:13:33;1012.7393239020082;;;19.638661050010658;0
55014;BME280;40916;51.632;5.552;2022-08-25T02:14:33;1012.754335692636;;;19.638661050010658;0
55014;BME280;40916;51.632;5.552;2022-08-25T02:15:33;1012.7792064462075;;;19.651310391770405;0
55014;BME280;40916;51.632;5.552;2022-08-25T02:16:34;1012.7273650379475;;;19.644985864373222;0
55014;BME280;40916;51.632;5.552;2022-08-25T02:17:34;1012.724312113365;;;19.638661050010658;0
55014;BME280;40916;51.632;5.552;2022-08-25T02:18:33;1012.7219556106807;;;19.62601056007356;0
55014;BME280;40916;51.632;5.552;2022-08-25T02:19:33;1012.7587869868775;;;19.632335948603764;0
55014;BME280;40916;51.632;5.552;2022-08-25T02:20:33;1012.751281193065;;;19.632335948603764;0
55014;BME280;40916;51.632;5.552;2022-08-25T02:21:33;1012.6834542331338;;;19.600706133139088;0
55014;BME280;40916;51.632;5.552;2022-08-25T02:22:33;1012.6374321797139;;;19.575397105905893;0
55014;BME280;40916;51.632;5.552;2022-08-25T02:23:33;1012.6749565231894;;;19.575397105905893;0
55014;BME280;40916;51.632;5.552;2022-08-25T02:24:33;1012.6415374348918;;;19.537424928406516;0
55014;BME280;40916;51.632;5.552;2022-08-25T02:25:33;1012.7336203188612;;;19.518434948523467;0
55014;BME280;40916;51.632;5.552;2022-08-25T02:26:33;1012.6506915964402;;;19.48677920999294;0
55014;BME280;40916;51.632;5.552;2022-08-25T02:27:33;1012.6895455513018;;;19.474114892503234;0
55014;BME280;40916;51.632;5.552;2022-08-25T02:28:33;1012.7634806623116;;;19.448782787599132;0
55014;BME280;40916;51.632;5.552;2022-08-25T02:29:33;1012.7010278519784;;;19.43611499890826;0
55014;BME280;40916;51.632;5.552;2022-08-25T02:30:33;1012.654890656365;;;19.41077594585414;0
55014;BME280;40916;51.632;5.552;2022-08-25T02:31:34;1012.7049609923346;;;19.398104680211596;0
55014;BME280;40916;51.632;5.552;2022-08-25T02:32:33;1012.6506475487848;;;19.379095606052587;0
55014;BME280;40916;51.632;5.552;2022-08-25T02:33:34;1012.5738230591513;;;19.36008391913633;0
55014;BME280;40916;51.632;5.552;2022-08-25T02:34:33;1012.5788628274727;;;19.347408008591028;0
55014;BME280;40916;51.632;5.552;2022-08-25T02:35:34;1012.5876477668529;;;19.334730935215607;0
55014;BME280;40916;51.632;5.552;2022-08-25T02:36:34;1012.4864632023492;;;19.29669273167906;0
55014;BME280;40916;51.632;5.552;2022-08-25T02:37:34;1012.5577166605514;;;19.29669273167906;0
55014;BME280;40916;51.632;5.552;2022-08-25T02:38:34;1012.6014507792659;;;19.309373297403052;0
55014;BME280;40916;51.632;5.552;2022-08-25T02:39:33;1012.5289802089064;;;19.284011000551228;0
55014;BME280;40916;51.632;5.552;2022-08-25T02:40:34;1012.5927315861645;;;19.284011000551228;0
55014;BME280;40916;51.632;5.552;2022-08-25T02:41:34;1012.5746111471248;;;19.277669697759446;0
55014;BME280;40916;51.632;5.552;2022-08-25T02:42:34;1012.5377400495005;;;19.271328103374938;0
55014;BME280;40916;51.632;5.552;2022-08-25T02:43:34;1012.5564899408847;;;19.271328103374938;0
55014;BME280;40916;51.632;5.552;2022-08-25T02:44:34;1012.4952467551389;;;19.24595880829615;0
55014;BME280;40916;51.632;5.552;2022-08-25T02:45:34;1012.4546232354693;;;19.239615754737635;0
55014;BME280;40916;51.632;5.552;2022-08-25T02:46:35;1012.4596169328586;;;19.22692877130853;0
55014;BME280;40916;51.632;5.552;2022-08-25T02:47:34;1012.4677361294836;;;19.220584841276246;0
55014;BME280;40916;51.632;5.552;2022-08-25T02:48:34;1012.5314787767113;;;19.220584841276246;0
55014;BME280;40916;51.632;5.552;2022-08-25T02:49:34;1012.4926993113033;;;19.195206197141147;0
55014;BME280;40916;51.632;5.552;2022-08-25T02:50:35;1012.5014230161298;;;19.18251511953641;0
55014;BME280;40916;51.632;5.552;2022-08-25T02:51:35;1012.5251378068402;;;19.169822870709137;0
55014;BME280;40916;51.632;5.552;2022-08-25T02:52:35;1012.526957002466;;;19.150782300006334;0
55014;BME280;40916;51.632;5.552;2022-08-25T02:53:35;1012.5062715119661;;;19.131739090400547;0
55014;BME280;40916;51.632;5.552;2022-08-25T02:54:35;1012.4938202449692;;;19.144434856790834;0
55014;BME280;40916;51.632;5.552;2022-08-25T02:55:35;1012.4938202449692;;;19.144434856790834;0
55014;BME280;40916;51.632;5.552;2022-08-25T02:56:35;1012.5650503780879;;;19.144434856790834;0
55014;BME280;40916;51.632;5.552;2022-08-25T02:57:35;1012.4857179496839;;;19.150782300006334;0
55014;BME280;40916;51.632;5.552;2022-08-25T02:58:36;1012.4788244331648;;;19.144434856790834;0
55014;BME280;40916;51.632;5.552;2022-08-25T02:59:35;1012.5026428552765;;;19.169822870709137;0
55014;BME280;40916;51.632;5.552;2022-08-25T03:00:35;1012.4751781954135;;;19.18251511953641;0
55014;BME280;40916;51.632;5.552;2022-08-25T03:01:35;1012.5021004502294;;;19.2142406189243;0
55014;BME280;40916;51.632;5.552;2022-08-25T03:02:35;1012.4352270296076;;;19.207896104171773;0
55014;BME280;40916;51.632;5.552;2022-08-25T03:03:36;1012.4564874307466;;;19.220584841276246;0
55014;BME280;40916;51.632;5.552;2022-08-25T03:04:36;1012.3996230715281;;;19.22692877130853;0
55014;BME280;40916;51.632;5.552;2022-08-25T03:05:36;1012.4321249208581;;;19.239615754737635;0
55014;BME280;40916;51.632;5.552;2022-08-25T03:06:36;1012.4539992709716;;;19.24595880829615;0
55014;BME280;40916;51.632;5.552;2022-08-25T03:07:36;1012.4064908965095;;;19.271328103374938;0
55014;BME280;40916;51.632;5.552;2022-08-25T03:08:36;1012.3439564200944;;;19.29669273167906;0
55014;BME280;40916;51.632;5.552;2022-08-25T03:09:36;1012.4508013931734;;;19.315713143439922;0
55014;BME280;40916;51.632;5.552;2022-08-25T03:10:36;1012.4901350439675;;;19.334730935215607;0
55014;BME280;40916;51.632;5.552;2022-08-25T03:11:36;1012.4901350439675;;;19.334730935215607;0
55014;BME280;40916;51.632;5.552;2022-08-25T03:12:36;1012.4351605682924;;;19.322052698367347;0
55014;BME280;40916;51.632;5.552;2022-08-25T03:13:36;1012.4545517262889;;;19.315713143439922;0
55014;BME280;40916;51.632;5.552;2022-08-25T03:14:37;1012.3939774105241;;;19.284011000551228;0
55014;BME280;40916;51.632;5.552;2022-08-25T03:15:37;1012.3290017571295;;;19.258644039505104;0
55014;BME280;40916;51.632;5.552;2022-08-25T03:16:37;1012.4914969832317;;;19.24595880829615;0
55014;BME280;40916;51.632;5.552;2022-08-25T03:17:37;1012.3821159887108;;;19.2142406189243;0
55014;BME280;40916;51.632;5.552;2022-08-25T03:18:37;1012.3871012561018;;;19.201551296937716;0
55014;BME280;40916;51.632;5.552;2022-08-25T03:19:37;1012.491468988994;;;19.207896104171773;0
55014;BME280;40916;51.632;5.552;2022-08-25T03:20:37;1012.4270494155109;;;19.176169141566138;0
55014;BME280;40916;51.632;5.552;2022-08-25T03:21:37;1012.3982758974264;;;19.16347630688428;0
55014;BME280;40916;51.632;5.552;2022-08-25T03:22:37;1012.3894540369531;;;19.138087120282666;0
55014;BME280;40916;51.632;5.552;2022-08-25T03:23:38;1012.3906590427168;;;19.12539076706317;0
55014;BME280;40916;51.632;5.552;2022-08-25T03:24:37;1012.3449180138161;;;19.093644745699482;0
55014;BME280;40916;51.632;5.552;2022-08-25T03:25:38;1012.3622828111239;;;19.06824263810926;0
55014;BME280;40916;51.632;5.552;2022-08-25T03:26:38;1012.3482225686181;;;19.01742429273898;0
55014;BME280;40916;51.632;5.552;2022-08-25T03:27:38;1012.3493800180368;;;19.00471675879275;0
55014;BME280;40916;51.632;5.552;2022-08-25T03:28:38;1012.3340837861884;;;18.966587072224346;0
55014;BME280;40916;51.632;5.552;2022-08-25T03:29:38;1012.2763962496404;;;18.941161370674596;0
55014;BME280;40916;51.632;5.552;2022-08-25T03:30:38;1012.2936366212906;;;18.91573093458724;0
55014;BME280;40916;51.632;5.552;2022-08-25T03:31:38;1012.2915644321209;;;18.896654997313448;0
55014;BME280;40916;51.632;5.552;2022-08-25T03:32:38;1012.2723994204349;;;18.8584951154449;0
55014;BME280;40916;51.632;5.552;2022-08-25T03:33:38;1012.2151855183772;;;18.826687047688864;0
55014;BME280;40916;51.632;5.552;2022-08-25T03:34:38;1012.2783310313016;;;18.83304925569646;0
55014;BME280;40916;51.632;5.552;2022-08-25T03:35:38;1012.2612247223678;;;18.813961739409827;0
55014;BME280;40916;51.632;5.552;2022-08-25T03:36:39;1012.2965540451546;;;18.79487154508923;0
55014;BME280;40916;51.632;5.552;2022-08-25T03:37:39;1012.2200218801889;;;18.76941378296259;0
55014;BME280;40916;51.632;5.552;2022-08-25T03:38:39;1012.2291021300747;;;18.750317331188306;0
55014;BME280;40916;51.632;5.552;2022-08-25T03:39:39;1012.2301545625718;;;18.737584871530853;0
55014;BME280;40916;51.632;5.552;2022-08-25T03:40:39;1012.1364191683465;;;18.693011853854834;0
55014;BME280;40916;51.632;5.552;2022-08-25T03:41:39;1012.2080954236061;;;18.686643084012488;0
55014;BME280;40916;51.632;5.552;2022-08-25T03:42:40;1012.236868346043;;;18.65479474479539;0
55014;BME280;40916;51.632;5.552;2022-08-25T03:43:39;1012.2046827963609;;;18.635682146252854;0
55014;BME280;40916;51.632;5.552;2022-08-25T03:44:39;1012.1729886802445;;;18.610194482663744;0
55014;BME280;40916;51.632;5.552;2022-08-25T03:45:40;1012.2311436848466;;;18.5847020154558;0
55014;BME280;40916;51.632;5.552;2022-08-25T03:46:40;1012.2401076052903;;;18.565579509445218;0
55014;BME280;40916;51.632;5.552;2022-08-25T03:47:40;1012.2041296543634;;;18.54645429611069;0
55014;BME280;40916;51.632;5.552;2022-08-25T03:48:40;1012.1878255051366;;;18.514572918109128;0
55014;BME280;40916;51.632;5.552;2022-08-25T03:49:40;1012.2304404816233;;;18.49544047413581;0
55014;BME280;40916;51.632;5.552;2022-08-25T03:50:42;1012.1836664883435;;;18.469926324080312;0
55014;BME280;40916;51.632;5.552;2022-08-25T03:51:41;1012.1799057980928;;;18.418883518805167;0
55014;BME280;40916;51.632;5.552;2022-08-25T03:52:40;1012.144763683598;;;18.386971928711787;0
55014;BME280;40916;51.632;5.552;2022-08-25T03:53:40;1012.1133364113439;;;18.355052759126867;0
55014;BME280;40916;51.632;5.552;2022-08-25T03:54:40;1012.1688336709425;;;18.31035316792454;0
55014;BME280;40916;51.632;5.552;2022-08-25T03:55:40;1012.1335896394773;;;18.278415764163796;0
55014;BME280;40916;51.632;5.552;2022-08-25T03:56:41;1012.0954260144979;;;18.233690602120046;0
55014;BME280;40916;51.632;5.552;2022-08-25T03:57:40;1012.063018033496;;;18.21451809883368;0
55014;BME280;40916;51.632;5.552;2022-08-25T03:58:41;1012.0871354654421;;;18.188950483934608;0
55014;BME280;40916;51.632;5.552;2022-08-25T03:59:41;1012.0484487214961;;;18.15058988502655;0
55014;BME280;40916;51.632;5.552;2022-08-25T04:00:41;1012.0538075175834;;;18.125010026685953;0
55014;BME280;40916;51.632;5.552;2022-08-25T04:01:42;1012.0445786301003;;;18.09302830261311;0
55014;BME280;40916;51.632;5.552;2022-08-25T04:02:41;1012.0839407782752;;;18.061038900526146;0
55014;BME280;40916;51.632;5.552;2022-08-25T04:03:41;1012.0555628837086;;;18.035441843421662;0
55014;BME280;40916;51.632;5.552;2022-08-25T04:04:41;1011.986407596673;;;18.00343859365028;0
55014;BME280;40916;51.632;5.552;2022-08-25T04:05:41;1012.0466195498146;;;17.997037019042953;0
55014;BME280;40916;51.632;5.552;2022-08-25T04:06:42;1012.0170772396477;;;17.99063513601529;0
55014;BME280;40916;51.632;5.552;2022-08-25T04:07:41;1012.0129623525394;;;17.997037019042953;0
55014;BME280;40916;51.632;5.552;2022-08-25T04:08:42;1011.9579911244233;;;17.977830444351255;0
55014;BME280;40916;51.632;5.552;2022-08-25T04:09:42;1012.0170772396477;;;17.99063513601529;0
55014;BME280;40916;51.632;5.552;2022-08-25T04:10:42;1011.9751883810014;;;18.00343859365028;0
55014;BME280;40916;51.632;5.552;2022-08-25T04:11:42;1011.9983790582858;;;17.99063513601529;0
55014;BME280;40916;51.632;5.552;2022-08-25T04:12:42;1011.9860293232208;;;18.009839859924156;0
55014;BME280;40916;51.632;5.552;2022-08-25T04:13:43;1011.9490102154125;;;18.00343859365028;0
55014;BME280;40916;51.632;5.552;2022-08-25T04:14:42;1011.9527499529842;;;18.00343859365028;0